Terminal Aerodrome Forecast
Issued by NWS Mobile, AL

Current Version | Previous Version | Text Only | Print | Product List | Glossary On
Versions: 1 2 3 4 5 6 7 8 9 10 11 12 13 14 15 16 17 18 19 20 21 22 23 24
443
FTUS44 KMOB 262339
TAFPNS
TAF
KPNS 262339Z 2700/2724 18009KT P6SM FEW024 BKN250
     FM271000 12005KT P6SM SCT020 BKN100 BKN250
     FM271600 16014KT P6SM SCT050 SCT100 BKN250=

USA.gov is the U.S. government's official web portal to all federal, state and local government web resources and services.